Time;durP1;ratioP1;P1;durP2;ratioP2;P2;SDS_P1;SDS_P2;PMS_P1;PMS_P2;Temp;Humidity;BMP_temperature;BMP_pressure;BME280_temperature;BME280_humidity;BME280_pressure;Samples;Min_cycle;Max_cycle;Signal;HPM_P1;HPM_P2
2023/04/16 00:00:53;;;;;;;9.43;9.13;;;7.80;99.90;;;;;;5020763;28;20283;-83
2023/04/16 00:03:40;;;;;;;9.43;9.13;;;7.80;99.90;;;;;;5026977;28;20229;-83
2023/04/16 00:06:13;;;;;;;9.63;9.33;;;7.80;99.90;;;;;;5022726;28;20239;-83
2023/04/16 00:08:50;;;;;;;9.53;9.23;;;7.90;99.90;;;;;;5021499;28;20220;-82
2023/04/16 00:11:47;;;;;;;9.60;9.30;;;7.90;99.90;;;;;;5017941;28;20238;-82
2023/04/16 00:14:25;;;;;;;9.53;9.23;;;7.90;99.90;;;;;;5019801;28;20232;-82
2023/04/16 00:17:03;;;;;;;9.57;9.27;;;7.90;99.90;;;;;;5019888;28;20291;-83
2023/04/16 00:19:40;;;;;;;9.53;9.23;;;7.90;99.90;;;;;;5022592;28;20232;-83
2023/04/16 00:22:17;;;;;;;9.70;9.40;;;7.90;99.90;;;;;;5022876;28;20322;-83
2023/04/16 00:27:46;;;;;;;9.53;9.23;;;7.90;99.90;;;;;;5019040;28;20241;-82
2023/04/16 00:30:21;;;;;;;9.60;9.30;;;7.90;99.90;;;;;;5023187;28;20227;-84
2023/04/16 00:35:36;;;;;;;9.50;9.20;;;7.90;99.90;;;;;;5026951;28;20235;-84
2023/04/16 00:38:14;;;;;;;9.47;9.17;;;7.90;99.90;;;;;;5039677;28;20249;-83
2023/04/16 00:40:57;;;;;;;9.70;9.40;;;7.90;99.90;;;;;;5034882;28;20232;-84
2023/04/16 00:46:46;;;;;;;9.40;9.10;;;7.90;99.90;;;;;;5029427;28;20296;-84
2023/04/16 00:49:28;;;;;;;9.37;9.07;;;7.90;99.90;;;;;;5035853;28;20316;-83
2023/04/16 00:52:53;;;;;;;9.27;8.97;;;7.90;99.90;;;;;;5029930;28;20221;-84
2023/04/16 00:55:51;;;;;;;9.47;9.17;;;7.90;99.90;;;;;;5019431;28;20236;-84
2023/04/16 00:58:48;;;;;;;9.40;9.10;;;7.90;99.90;;;;;;5018111;28;20239;-84
2023/04/16 01:01:27;;;;;;;9.40;9.10;;;7.90;99.90;;;;;;5018198;28;20235;-83
2023/04/16 01:04:09;;;;;;;9.40;9.10;;;8.00;99.90;;;;;;5021468;28;20259;-83
2023/04/16 01:06:43;;;;;;;9.50;9.20;;;7.90;99.90;;;;;;5022128;28;20343;-83
2023/04/16 01:12:31;;;;;;;9.33;9.03;;;7.90;99.90;;;;;;5020607;28;20215;-83
2023/04/16 01:15:06;;;;;;;9.30;9.00;;;8.00;99.90;;;;;;5028593;28;20223;-83
2023/04/16 01:17:44;;;;;;;9.53;9.23;;;8.00;99.90;;;;;;5022852;28;20239;-86
2023/04/16 01:20:26;;;;;;;9.57;9.27;;;8.00;99.90;;;;;;5022996;28;20327;-83
2023/04/16 01:23:14;;;;;;;9.30;9.00;;;8.10;99.90;;;;;;5039016;28;20220;-83
2023/04/16 01:25:56;;;;;;;9.40;9.10;;;8.10;99.90;;;;;;5039270;28;20223;-85
2023/04/16 01:28:29;;;;;;;9.37;9.07;;;8.10;99.90;;;;;;5039738;28;20252;-83
2023/04/16 01:31:03;;;;;;;9.27;8.97;;;8.20;99.90;;;;;;5025609;28;20232;-83
2023/04/16 01:33:54;;;;;;;9.50;9.20;;;8.20;99.90;;;;;;5023672;28;20298;-83
2023/04/16 01:36:45;;;;;;;9.57;9.27;;;8.20;99.90;;;;;;5023265;28;20295;-85
2023/04/16 01:45:54;;;;;;;9.30;9.00;;;8.20;99.90;;;;;;5016707;28;20239;-83
2023/04/16 01:48:45;;;;;;;9.37;9.07;;;8.20;99.90;;;;;;5016171;28;20240;-83
2023/04/16 01:51:28;;;;;;;9.30;9.00;;;8.10;99.90;;;;;;5017731;28;20242;-83
2023/04/16 01:54:10;;;;;;;9.40;9.10;;;8.10;99.90;;;;;;5017774;28;20231;-86
2023/04/16 02:03:23;;;;;;;9.30;9.00;;;8.10;99.90;;;;;;5016724;28;20282;-85
2023/04/16 02:06:18;;;;;;;9.33;9.03;;;8.10;99.90;;;;;;5018534;28;20259;-84
2023/04/16 02:08:56;;;;;;;9.50;9.20;;;8.10;99.90;;;;;;5021177;28;20323;-85
2023/04/16 02:11:53;;;;;;;;;;;;;;;;;;;;;
2023/04/16 02:14:44;;;;;;;9.30;9.00;;;8.10;99.90;;;;;;5027966;28;20278;-84
2023/04/16 02:17:16;;;;;;;9.30;9.00;;;8.10;99.90;;;;;;5028898;28;20243;-84
2023/04/16 02:20:16;;;;;;;9.47;9.17;;;8.10;99.90;;;;;;5027757;28;20232;-84
2023/04/16 02:22:59;;;;;;;9.37;9.07;;;8.10;99.90;;;;;;5028025;28;20228;-84
2023/04/16 02:25:53;;;;;;;9.60;9.30;;;8.10;99.90;;;;;;5024759;28;20242;-85
2023/04/16 02:28:38;;;;;;;9.70;9.40;;;8.00;99.90;;;;;;5011105;28;20306;-84
2023/04/16 02:32:00;;;;;;;9.50;9.20;;;8.10;99.90;;;;;;5022061;28;20235;-84
2023/04/16 02:34:40;;;;;;;9.33;9.03;;;8.10;99.90;;;;;;5025409;28;20330;-85
2023/04/16 02:37:14;;;;;;;9.30;9.00;;;8.10;99.90;;;;;;5024731;28;20231;-84
2023/04/16 02:39:48;;;;;;;9.50;9.20;;;8.10;99.90;;;;;;5025582;28;20236;-84
2023/04/16 02:42:28;;;;;;;9.40;9.10;;;8.10;99.90;;;;;;5041428;28;20223;-84
2023/04/16 02:45:16;;;;;;;9.43;9.13;;;8.10;99.90;;;;;;5040404;28;20251;-84
2023/04/16 02:47:50;;;;;;;9.37;9.07;;;8.20;99.90;;;;;;5026314;28;20256;-84
2023/04/16 02:50:24;;;;;;;9.20;8.90;;;8.20;99.90;;;;;;5022359;28;20236;-84
2023/04/16 02:52:56;;;;;;;9.40;9.10;;;8.20;99.90;;;;;;5020625;28;20286;-84
2023/04/16 02:55:37;;;;;;;9.40;9.10;;;8.20;99.90;;;;;;5020297;28;20232;-84
2023/04/16 02:58:07;;;;;;;9.40;9.10;;;8.20;99.90;;;;;;5033432;28;20235;-84
2023/04/16 03:00:43;;;;;;;9.50;9.20;;;8.20;99.90;;;;;;5025405;28;20279;-84
2023/04/16 03:04:10;;;;;;;9.40;9.10;;;8.20;99.90;;;;;;5024796;28;20220;-84
2023/04/16 03:07:16;;;;;;;;;;;;;;;;;;;;;
2023/04/16 03:09:57;;;;;;;9.40;9.10;;;8.20;99.90;;;;;;5023853;28;20226;-84
2023/04/16 03:12:50;;;;;;;9.30;9.00;;;8.20;99.90;;;;;;5022849;28;20239;-84
2023/04/16 03:15:24;;;;;;;9.27;8.97;;;8.20;99.90;;;;;;5020821;28;20236;-84
2023/04/16 03:18:16;;;;;;;9.50;9.20;;;8.20;99.90;;;;;;5018454;28;20228;-84
2023/04/16 03:21:17;;;;;;;9.43;9.13;;;8.20;99.90;;;;;;5018986;28;20232;-85
2023/04/16 03:24:07;;;;;;;9.30;9.00;;;8.20;99.90;;;;;;5019844;28;20236;-85
2023/04/16 03:26:58;;;;;;;9.40;9.10;;;8.20;99.90;;;;;;5020348;28;20258;-84
2023/04/16 03:29:43;;;;;;;9.40;9.10;;;8.20;99.90;;;;;;5010256;28;20243;-84
2023/04/16 03:32:29;;;;;;;9.33;9.03;;;8.10;99.90;;;;;;5022806;28;20299;-84
2023/04/16 03:35:17;;;;;;;9.40;9.10;;;8.10;99.90;;;;;;5021626;28;20262;-84
2023/04/16 03:38:32;;;;;;;9.40;9.10;;;8.10;99.90;;;;;;5022393;28;20291;-84
2023/04/16 03:41:09;;;;;;;9.20;8.90;;;8.10;99.90;;;;;;5021128;28;20224;-84
2023/04/16 03:43:56;;;;;;;9.40;9.10;;;8.10;99.90;;;;;;5021858;28;20583;-85
2023/04/16 03:46:37;;;;;;;9.57;9.27;;;8.10;99.90;;;;;;5020891;28;20236;-84
2023/04/16 03:49:37;;;;;;;9.40;9.10;;;8.10;99.90;;;;;;5021214;28;21114;-85
2023/04/16 03:52:41;;;;;;;9.50;9.20;;;8.10;99.90;;;;;;5022546;28;20224;-84
2023/04/16 03:55:32;;;;;;;9.80;9.50;;;8.10;99.90;;;;;;5021844;28;20232;-84
2023/04/16 03:58:06;;;;;;;9.60;9.30;;;8.10;99.90;;;;;;5020716;28;20236;-84
2023/04/16 04:11:01;;;;;;;9.60;9.30;;;8.10;99.90;;;;;;5019294;28;20267;-84
2023/04/16 04:13:53;;;;;;;9.83;9.53;;;8.10;99.90;;;;;;5039196;28;20219;-84
2023/04/16 04:22:51;;;;;;;9.97;9.67;;;8.10;99.90;;;;;;5018148;28;20230;-84
2023/04/16 04:25:42;;;;;;;10.00;9.70;;;8.10;99.90;;;;;;5023338;28;20232;-85
2023/04/16 04:28:41;;;;;;;9.87;9.57;;;8.10;99.90;;;;;;5024522;28;20235;-84
2023/04/16 04:31:26;;;;;;;10.10;9.80;;;8.10;99.90;;;;;;5032924;28;20232;-84
2023/04/16 04:36:51;;;;;;;10.00;9.70;;;8.20;99.90;;;;;;5024262;28;20232;-85
2023/04/16 04:43:22;;;;;;;9.80;9.50;;;8.20;99.90;;;;;;5021306;28;20394;-84
2023/04/16 04:46:21;;;;;;;9.93;9.63;;;8.20;99.90;;;;;;4985955;28;20334;-85
2023/04/16 04:56:21;;;;;;;9.90;9.60;;;8.30;99.90;;;;;;5029058;28;20388;-84
2023/04/16 05:06:06;;;;;;;9.70;9.40;;;8.30;99.90;;;;;;4979683;28;20228;-84
2023/04/16 05:09:25;;;;;;;9.60;9.30;;;8.30;99.90;;;;;;5016820;28;20296;-84
2023/04/16 05:12:03;;;;;;;9.53;9.23;;;8.30;99.90;;;;;;4921313;29;20243;-84
2023/04/16 05:28:26;;;;;;;9.60;9.30;;;8.50;99.90;;;;;;5019636;28;20283;-85
2023/04/16 05:31:46;;;;;;;;;;;;;;;;;;;;;
2023/04/16 05:34:57;;;;;;;9.50;9.20;;;8.60;99.90;;;;;;5021715;28;20234;-85
2023/04/16 05:38:22;;;;;;;9.30;9.00;;;8.60;99.90;;;;;;5020705;28;20236;-85
2023/04/16 05:44:52;;;;;;;9.30;9.00;;;8.70;99.90;;;;;;5018052;28;20216;-84
2023/04/16 05:47:20;;;;;;;9.37;9.07;;;8.70;99.90;;;;;;5043827;22;20331;-78
2023/04/16 05:49:49;;;;;;;9.50;9.20;;;8.80;99.90;;;;;;5019560;28;20299;-78
2023/04/16 05:52:16;;;;;;;9.67;9.37;;;8.80;99.90;;;;;;5019571;28;20236;-77
2023/04/16 05:54:43;;;;;;;9.40;9.10;;;8.90;99.90;;;;;;5020808;28;20230;-78
2023/04/16 05:57:11;;;;;;;9.43;9.13;;;8.90;99.90;;;;;;5019933;28;20320;-78
2023/04/16 05:59:38;;;;;;;9.40;9.10;;;8.90;99.90;;;;;;5020089;28;20330;-78
2023/04/16 06:02:06;;;;;;;9.50;9.20;;;8.90;99.90;;;;;;5019800;28;20242;-78
2023/04/16 06:04:34;;;;;;;9.60;9.30;;;8.90;99.90;;;;;;5020035;28;20236;-78
2023/04/16 06:07:03;;;;;;;9.47;9.17;;;8.90;99.90;;;;;;5018291;28;20244;-77
2023/04/16 06:09:31;;;;;;;9.40;9.10;;;8.90;99.90;;;;;;5018406;28;20236;-78
2023/04/16 06:11:58;;;;;;;9.30;9.00;;;9.00;99.90;;;;;;5018284;28;20322;-78
2023/04/16 06:14:26;;;;;;;9.53;9.23;;;9.00;99.90;;;;;;5018256;28;20336;-78
2023/04/16 06:16:53;;;;;;;9.63;9.33;;;8.90;99.90;;;;;;5018182;28;20242;-78
2023/04/16 06:19:21;;;;;;;9.70;9.40;;;9.00;99.90;;;;;;5018245;28;20691;-78
2023/04/16 06:21:48;;;;;;;9.80;9.50;;;9.00;99.90;;;;;;5019698;28;20259;-78
2023/04/16 06:24:17;;;;;;;9.70;9.40;;;9.10;99.90;;;;;;5019673;28;20267;-78
2023/04/16 06:26:45;;;;;;;9.67;9.37;;;9.10;99.90;;;;;;5019168;28;20246;-78
2023/04/16 06:29:12;;;;;;;9.67;9.37;;;9.20;99.90;;;;;;5018033;28;20234;-78
2023/04/16 06:31:40;;;;;;;9.57;9.27;;;9.20;99.90;;;;;;5018546;28;20283;-78
2023/04/16 06:34:08;;;;;;;9.33;9.03;;;9.20;99.90;;;;;;5019581;28;20239;-78
2023/04/16 06:36:36;;;;;;;9.50;9.20;;;9.20;99.90;;;;;;5019305;28;20235;-78
2023/04/16 06:39:03;;;;;;;9.57;9.27;;;9.20;99.90;;;;;;5019423;28;20243;-78
2023/04/16 06:41:32;;;;;;;9.70;9.40;;;9.30;99.90;;;;;;5020180;28;20242;-78
2023/04/16 06:44:00;;;;;;;9.70;9.40;;;9.30;99.90;;;;;;5019777;28;20233;-78
2023/04/16 06:46:27;;;;;;;9.37;9.07;;;9.40;99.90;;;;;;5016665;28;20250;-78
2023/04/16 06:48:55;;;;;;;9.57;9.27;;;9.40;99.90;;;;;;5020128;28;20236;-78
2023/04/16 06:51:23;;;;;;;9.23;8.93;;;9.40;99.90;;;;;;5020837;28;20230;-77
2023/04/16 06:53:50;;;;;;;9.33;9.03;;;9.40;99.90;;;;;;5019825;28;20258;-78
2023/04/16 06:56:17;;;;;;;9.40;9.10;;;9.50;99.90;;;;;;5018493;28;20278;-78
2023/04/16 06:58:46;;;;;;;9.50;9.20;;;9.40;99.90;;;;;;5018331;28;20246;-78
2023/04/16 07:01:14;;;;;;;9.30;9.00;;;9.50;99.90;;;;;;5018112;28;20267;-78
2023/04/16 07:03:41;;;;;;;9.40;9.10;;;9.50;99.90;;;;;;5017843;28;20234;-78
2023/04/16 07:06:09;;;;;;;9.50;9.20;;;9.50;99.90;;;;;;5018048;28;20240;-78
2023/04/16 07:08:36;;;;;;;9.33;9.03;;;9.50;99.90;;;;;;5017947;28;20232;-78
2023/04/16 07:11:03;;;;;;;9.60;9.30;;;9.50;99.90;;;;;;5017661;28;20224;-78
2023/04/16 07:13:31;;;;;;;9.70;9.40;;;9.50;99.90;;;;;;5019049;28;20235;-78
2023/04/16 07:16:00;;;;;;;9.63;9.33;;;9.50;99.90;;;;;;5018778;28;20236;-78
2023/04/16 07:18:27;;;;;;;9.80;9.50;;;9.60;99.90;;;;;;5018163;28;20235;-78
2023/04/16 07:20:55;;;;;;;9.67;9.37;;;9.60;99.90;;;;;;5020152;28;20295;-78
2023/04/16 07:23:22;;;;;;;9.67;9.37;;;9.60;99.90;;;;;;5021356;28;20291;-81
2023/04/16 07:25:50;;;;;;;9.80;9.50;;;9.60;99.90;;;;;;5019843;28;20334;-78
2023/04/16 07:28:17;;;;;;;9.67;9.37;;;9.70;99.90;;;;;;5020957;28;20271;-78
2023/04/16 07:30:45;;;;;;;9.80;9.50;;;9.70;99.90;;;;;;5021119;28;20231;-81
2023/04/16 07:33:14;;;;;;;9.60;9.30;;;9.70;99.90;;;;;;5020985;28;20224;-78
2023/04/16 07:35:41;;;;;;;9.73;9.43;;;9.70;99.90;;;;;;5021139;28;20235;-78
2023/04/16 07:38:08;;;;;;;9.63;9.33;;;9.70;99.90;;;;;;5020620;28;20242;-79
2023/04/16 07:40:37;;;;;;;9.90;9.60;;;9.80;99.90;;;;;;5020771;28;20660;-79
2023/04/16 07:43:04;;;;;;;9.70;9.40;;;9.90;99.90;;;;;;5020256;28;20232;-78
2023/04/16 07:45:32;;;;;;;9.90;9.60;;;9.90;99.90;;;;;;5020578;28;20240;-79
2023/04/16 07:48:00;;;;;;;9.60;9.30;;;9.90;99.90;;;;;;5021261;28;20240;-79
2023/04/16 07:50:28;;;;;;;9.60;9.30;;;10.00;99.90;;;;;;5031657;28;20343;-78
2023/04/16 07:52:56;;;;;;;9.47;9.17;;;10.00;99.90;;;;;;5027048;28;20315;-79
2023/04/16 07:55:24;;;;;;;9.50;9.20;;;10.20;99.90;;;;;;5022177;28;20228;-79
2023/04/16 07:57:51;;;;;;;9.60;9.30;;;10.20;99.90;;;;;;5021233;28;20231;-79
2023/04/16 08:00:19;;;;;;;9.40;9.10;;;10.30;99.90;;;;;;5021366;28;20368;-79
2023/04/16 08:02:46;;;;;;;9.33;9.03;;;10.40;99.90;;;;;;5021359;28;20232;-78
2023/04/16 08:05:14;;;;;;;9.50;9.20;;;10.40;99.90;;;;;;5021975;28;20232;-79
2023/04/16 08:07:43;;;;;;;9.37;9.07;;;10.50;99.90;;;;;;5020256;28;20242;-79
2023/04/16 08:10:11;;;;;;;9.00;8.70;;;10.50;99.90;;;;;;5020739;28;20327;-79
2023/04/16 08:12:39;;;;;;;9.40;9.10;;;10.60;99.90;;;;;;5020608;28;20220;-78
2023/04/16 08:15:08;;;;;;;9.50;9.20;;;10.70;99.90;;;;;;5020260;28;20232;-79
2023/04/16 08:17:36;;;;;;;9.17;8.87;;;10.70;99.90;;;;;;5020250;28;20231;-79
2023/04/16 08:20:04;;;;;;;9.47;9.17;;;10.70;99.90;;;;;;5020885;28;20235;-79
2023/04/16 08:22:33;;;;;;;9.20;8.90;;;10.80;99.90;;;;;;5021219;28;20236;-79
2023/04/16 08:25:01;;;;;;;9.10;8.80;;;10.70;99.90;;;;;;5021211;28;20232;-78
2023/04/16 08:27:29;;;;;;;9.50;9.20;;;10.60;99.90;;;;;;5019888;28;20244;-78
2023/04/16 08:29:57;;;;;;;9.70;9.40;;;10.60;99.90;;;;;;5019722;28;20225;-78
2023/04/16 08:32:24;;;;;;;9.73;9.43;;;10.60;99.90;;;;;;5018698;28;20228;-78
2023/04/16 08:34:52;;;;;;;9.90;9.60;;;10.60;99.90;;;;;;5018596;28;20232;-80
2023/04/16 08:37:19;;;;;;;9.80;9.50;;;10.50;99.90;;;;;;5017549;28;20236;-78
2023/04/16 08:39:47;;;;;;;9.40;9.10;;;10.50;99.90;;;;;;5017022;28;20236;-78
2023/04/16 08:42:25;;;;;;;9.33;9.03;;;10.40;99.90;;;;;;5017587;28;20228;-78
2023/04/16 08:45:04;;;;;;;9.40;9.10;;;10.40;99.90;;;;;;5017616;28;20263;-78
2023/04/16 08:47:36;;;;;;;9.30;9.00;;;10.40;99.90;;;;;;5016882;28;20236;-78
2023/04/16 08:50:05;;;;;;;9.57;9.27;;;10.50;99.90;;;;;;5017383;28;20240;-78
2023/04/16 08:52:34;;;;;;;9.43;9.13;;;10.50;99.90;;;;;;5017411;28;20229;-78
2023/04/16 08:55:06;;;;;;;9.03;8.73;;;10.60;99.90;;;;;;5017556;28;20246;-78
2023/04/16 08:57:45;;;;;;;8.90;8.60;;;10.70;99.90;;;;;;5016622;28;20243;-78
2023/04/16 09:00:14;;;;;;;9.00;8.70;;;10.90;99.90;;;;;;5017388;28;20228;-78
2023/04/16 09:02:42;;;;;;;9.00;8.70;;;11.00;99.90;;;;;;5017353;28;20239;-78
2023/04/16 09:05:13;;;;;;;9.00;8.70;;;11.00;99.90;;;;;;5017450;28;20271;-78
2023/04/16 09:07:42;;;;;;;9.30;9.00;;;11.10;99.90;;;;;;5016759;28;20239;-78
2023/04/16 09:10:12;;;;;;;9.10;8.80;;;11.10;99.90;;;;;;5016844;28;20323;-78
2023/04/16 09:12:42;;;;;;;9.20;8.90;;;11.20;99.90;;;;;;5016743;28;20231;-78
2023/04/16 09:15:12;;;;;;;9.20;8.90;;;11.20;99.90;;;;;;5017770;28;20224;-78
2023/04/16 09:17:40;;;;;;;9.13;8.83;;;11.10;99.90;;;;;;5019194;28;20235;-78
2023/04/16 09:20:09;;;;;;;9.20;8.90;;;11.10;99.90;;;;;;5023009;28;20240;-78
2023/04/16 09:22:38;;;;;;;9.07;8.77;;;11.10;99.90;;;;;;5019193;28;20236;-78
2023/04/16 09:25:07;;;;;;;9.17;8.87;;;11.30;99.90;;;;;;5017359;28;20239;-78
2023/04/16 09:27:35;;;;;;;8.90;8.63;;;11.30;99.90;;;;;;5036408;28;20266;-79
2023/04/16 09:30:21;;;;;;;8.80;8.60;;;11.40;99.90;;;;;;5037568;28;20236;-79
2023/04/16 09:32:49;;;;;;;9.10;8.80;;;11.40;99.90;;;;;;5038808;28;20239;-78
2023/04/16 09:35:18;;;;;;;9.27;8.97;;;11.50;99.90;;;;;;5036370;28;20236;-78
2023/04/16 09:37:56;;;;;;;8.73;8.53;;;11.50;99.90;;;;;;5032126;28;20236;-79
2023/04/16 09:40:30;;;;;;;9.00;8.70;;;11.60;99.90;;;;;;5035547;28;20232;-78
2023/04/16 09:43:00;;;;;;;8.57;8.37;;;11.30;99.90;;;;;;5032673;28;20279;-78
2023/04/16 09:45:33;;;;;;;8.97;8.70;;;11.10;99.90;;;;;;5026170;28;20236;-78
2023/04/16 09:48:05;;;;;;;9.00;8.70;;;11.00;99.90;;;;;;5019747;28;20350;-78
2023/04/16 09:50:32;;;;;;;8.90;8.63;;;11.00;99.90;;;;;;5020159;28;20232;-78
2023/04/16 09:53:03;;;;;;;8.67;8.47;;;10.90;99.90;;;;;;5020230;28;20220;-78
2023/04/16 09:55:30;;;;;;;8.70;8.50;;;10.80;99.90;;;;;;5020385;28;20224;-80
2023/04/16 09:58:01;;;;;;;9.07;8.80;;;10.90;99.90;;;;;;5019162;28;20240;-78
2023/04/16 10:00:31;;;;;;;8.90;8.70;;;10.70;99.90;;;;;;5019601;28;20242;-78
2023/04/16 10:03:06;;;;;;;8.80;8.60;;;10.60;99.90;;;;;;5020224;28;20223;-78
2023/04/16 10:05:33;;;;;;;8.60;8.40;;;10.70;99.90;;;;;;5025962;28;20247;-78
2023/04/16 10:08:01;;;;;;;9.00;8.70;;;10.70;99.90;;;;;;5020802;28;20240;-78
2023/04/16 10:10:28;;;;;;;8.60;8.40;;;10.80;99.90;;;;;;5021283;28;20306;-79
2023/04/16 10:12:56;;;;;;;8.60;8.40;;;10.90;99.90;;;;;;5021357;28;20232;-79
2023/04/16 10:15:24;;;;;;;8.50;8.30;;;11.00;99.90;;;;;;5021269;28;20232;-79
2023/04/16 10:17:54;;;;;;;8.77;8.57;;;11.10;99.90;;;;;;5020874;28;20235;-79
2023/04/16 10:20:23;;;;;;;9.30;9.00;;;11.30;99.90;;;;;;5022416;28;20228;-79
2023/04/16 10:22:50;;;;;;;9.60;9.30;;;11.30;99.90;;;;;;5020363;28;20226;-79
2023/04/16 10:25:19;;;;;;;9.40;9.10;;;11.30;99.90;;;;;;5019811;28;20266;-79
2023/04/16 10:27:46;;;;;;;9.00;8.70;;;11.30;99.90;;;;;;5020252;28;20247;-79
2023/04/16 10:30:16;;;;;;;9.03;8.73;;;11.40;99.90;;;;;;5020044;28;20238;-79
2023/04/16 10:32:45;;;;;;;9.20;8.90;;;11.60;99.90;;;;;;5019190;28;20235;-78
2023/04/16 10:35:20;;;;;;;9.30;9.00;;;11.70;99.90;;;;;;5019345;28;20330;-79
2023/04/16 10:37:47;;;;;;;8.87;8.63;;;11.90;99.90;;;;;;5019291;28;20243;-79
2023/04/16 10:40:24;;;;;;;9.27;8.97;;;12.10;99.90;;;;;;5019518;28;20234;-79
2023/04/16 10:42:56;;;;;;;8.80;8.60;;;12.30;99.90;;;;;;5019769;28;20236;-79
2023/04/16 10:45:32;;;;;;;9.10;8.80;;;12.40;99.90;;;;;;5019503;28;20228;-79
2023/04/16 10:47:59;;;;;;;9.00;8.70;;;12.20;99.90;;;;;;5018707;28;20240;-79
2023/04/16 10:50:36;;;;;;;9.10;8.80;;;12.20;99.90;;;;;;5019328;28;20224;-79
2023/04/16 10:53:23;;;;;;;9.10;8.80;;;12.10;99.90;;;;;;5019727;28;20235;-79
2023/04/16 10:56:12;;;;;;;9.10;8.80;;;12.20;99.90;;;;;;5021292;28;20240;-78
2023/04/16 10:58:40;;;;;;;9.20;8.90;;;12.20;99.90;;;;;;5022309;28;20231;-78
2023/04/16 11:01:12;;;;;;;9.33;9.03;;;12.00;99.90;;;;;;5022415;28;20246;-79
2023/04/16 11:03:46;;;;;;;9.30;9.00;;;12.00;99.90;;;;;;5022224;28;20273;-79
2023/04/16 11:06:17;;;;;;;9.20;8.90;;;12.10;99.90;;;;;;5023709;28;20227;-79
2023/04/16 11:08:46;;;;;;;9.30;9.00;;;12.30;99.90;;;;;;5022623;28;20244;-79
2023/04/16 11:11:13;;;;;;;9.53;9.23;;;12.20;99.90;;;;;;5022816;28;20260;-78
2023/04/16 11:13:45;;;;;;;9.50;9.20;;;12.20;99.90;;;;;;5023083;28;20242;-79
2023/04/16 11:16:15;;;;;;;9.37;9.07;;;12.20;99.90;;;;;;5022860;28;20232;-79
2023/04/16 11:18:43;;;;;;;9.53;9.23;;;12.00;99.90;;;;;;5022251;28;20232;-79
2023/04/16 11:21:12;;;;;;;9.60;9.30;;;11.80;99.90;;;;;;5022690;28;20238;-79
2023/04/16 11:23:49;;;;;;;9.40;9.10;;;11.70;99.90;;;;;;5023208;28;20728;-79
2023/04/16 11:26:26;;;;;;;9.47;9.17;;;11.70;99.90;;;;;;5022913;28;20331;-79
2023/04/16 11:28:55;;;;;;;9.30;9.00;;;11.80;99.90;;;;;;5022520;28;20244;-79
2023/04/16 11:31:23;;;;;;;9.60;9.30;;;11.80;99.90;;;;;;5022881;28;20228;-79
2023/04/16 11:33:51;;;;;;;9.20;8.90;;;11.80;99.90;;;;;;5022951;28;20236;-79
2023/04/16 11:36:18;;;;;;;9.20;8.90;;;11.80;99.90;;;;;;5023636;28;20331;-79
2023/04/16 11:38:48;;;;;;;9.20;8.90;;;11.80;99.90;;;;;;5024120;28;20232;-79
2023/04/16 11:41:21;;;;;;;9.33;9.03;;;11.70;99.90;;;;;;5023492;28;20238;-79
2023/04/16 11:43:49;;;;;;;9.20;8.90;;;11.70;99.90;;;;;;5024538;28;20224;-78
2023/04/16 11:46:16;;;;;;;9.00;8.70;;;11.70;99.90;;;;;;5023828;28;20248;-79
2023/04/16 11:48:51;;;;;;;8.80;8.60;;;11.80;99.90;;;;;;5023439;28;20240;-79
2023/04/16 11:51:20;;;;;;;9.00;8.70;;;11.80;99.90;;;;;;5023907;28;20280;-80
2023/04/16 11:53:51;;;;;;;8.73;8.53;;;11.60;99.90;;;;;;5023322;28;20224;-80
2023/04/16 11:56:27;;;;;;;9.03;8.73;;;11.50;99.90;;;;;;5023747;28;20252;-80
2023/04/16 11:59:09;;;;;;;9.23;8.93;;;11.50;99.90;;;;;;5024402;28;20239;-80
2023/04/16 12:01:38;;;;;;;8.93;8.63;;;11.60;99.90;;;;;;5025857;28;20300;-80
2023/04/16 12:04:05;;;;;;;9.10;8.80;;;11.50;99.90;;;;;;5024436;28;20224;-80
2023/04/16 12:06:33;;;;;;;9.07;8.77;;;11.50;99.90;;;;;;5023828;28;20271;-80
2023/04/16 12:09:26;;;;;;;9.30;9.00;;;11.60;99.90;;;;;;5024998;28;20244;-79
2023/04/16 12:11:53;;;;;;;9.30;9.00;;;11.60;99.90;;;;;;5020646;28;20251;-80
2023/04/16 12:14:21;;;;;;;9.60;9.30;;;11.60;99.90;;;;;;5021682;28;20230;-80
2023/04/16 12:16:48;;;;;;;9.40;9.10;;;11.80;99.90;;;;;;5023621;28;20252;-80
2023/04/16 12:19:16;;;;;;;9.37;9.07;;;11.70;99.90;;;;;;5035094;28;20312;-80
2023/04/16 12:21:46;;;;;;;9.30;9.00;;;11.60;99.90;;;;;;5029602;28;20363;-80
2023/04/16 12:24:19;;;;;;;9.60;9.30;;;11.60;99.90;;;;;;5026109;28;20220;-80
2023/04/16 12:26:48;;;;;;;9.57;9.27;;;11.60;99.90;;;;;;5025105;28;20299;-79
2023/04/16 12:29:21;;;;;;;9.47;9.17;;;11.70;99.90;;;;;;5023028;28;20259;-80
2023/04/16 12:31:50;;;;;;;9.30;9.00;;;11.80;99.90;;;;;;5023235;28;20319;-79
2023/04/16 12:34:19;;;;;;;9.50;9.20;;;11.80;99.90;;;;;;5026280;28;20323;-79
2023/04/16 12:36:48;;;;;;;9.80;9.50;;;11.90;99.90;;;;;;5024384;28;20236;-79
2023/04/16 12:39:17;;;;;;;10.00;9.70;;;12.00;99.90;;;;;;5024444;28;20363;-79
2023/04/16 12:41:45;;;;;;;9.80;9.50;;;12.00;99.90;;;;;;5025649;28;20221;-80
2023/04/16 12:44:17;;;;;;;9.90;9.60;;;12.00;99.90;;;;;;5023616;28;20224;-79
2023/04/16 12:46:45;;;;;;;9.87;9.57;;;12.00;99.90;;;;;;5023258;28;20279;-79
2023/04/16 12:49:12;;;;;;;9.90;9.60;;;11.90;99.90;;;;;;5024585;28;20294;-79
2023/04/16 12:51:40;;;;;;;9.90;9.60;;;12.10;99.90;;;;;;5025770;28;20236;-79
2023/04/16 12:54:08;;;;;;;10.00;9.70;;;12.30;99.90;;;;;;5025168;28;20236;-79
2023/04/16 12:56:37;;;;;;;9.93;9.63;;;12.60;99.90;;;;;;5022831;28;20717;-79
2023/04/16 12:59:04;;;;;;;9.80;9.50;;;12.60;99.90;;;;;;5023373;28;20232;-80
2023/04/16 13:01:34;;;;;;;10.10;9.80;;;12.50;99.90;;;;;;5022960;28;20251;-80
2023/04/16 13:04:02;;;;;;;10.17;9.87;;;12.40;99.90;;;;;;5023275;28;20227;-80
2023/04/16 13:06:31;;;;;;;10.20;9.90;;;12.30;99.90;;;;;;5021331;28;20236;-81
2023/04/16 13:08:58;;;;;;;10.47;10.17;;;12.30;99.90;;;;;;5022026;28;20340;-79
2023/04/16 13:11:26;;;;;;;10.00;9.70;;;12.30;99.90;;;;;;5023234;28;20231;-80
2023/04/16 13:13:55;;;;;;;9.80;9.50;;;12.50;99.90;;;;;;5022999;28;20239;-80
2023/04/16 13:16:22;;;;;;;9.80;9.50;;;12.70;99.90;;;;;;5025106;28;20236;-80
2023/04/16 13:18:50;;;;;;;9.67;9.37;;;12.80;99.90;;;;;;5023469;28;20236;-80
2023/04/16 13:21:17;;;;;;;9.63;9.33;;;13.00;99.90;;;;;;5023914;28;20288;-81
2023/04/16 13:23:45;;;;;;;9.77;9.47;;;13.20;99.90;;;;;;5025808;28;20233;-79
2023/04/16 13:26:14;;;;;;;9.57;9.27;;;13.50;99.90;;;;;;5023114;28;20235;-80
2023/04/16 13:28:42;;;;;;;9.80;9.50;;;13.60;99.90;;;;;;5027569;28;20263;-80
2023/04/16 13:31:11;;;;;;;9.83;9.53;;;13.70;99.90;;;;;;5026827;28;20228;-79
2023/04/16 13:33:38;;;;;;;9.90;9.60;;;13.70;99.90;;;;;;5025686;28;20292;-79
2023/04/16 13:36:06;;;;;;;9.83;9.53;;;14.00;99.90;;;;;;5024845;28;21016;-79
2023/04/16 13:38:34;;;;;;;10.00;9.70;;;14.30;99.90;;;;;;5024359;28;20240;-80
2023/04/16 13:41:01;;;;;;;10.00;9.70;;;14.70;99.90;;;;;;5023346;28;20243;-80
2023/04/16 13:43:29;;;;;;;9.88;9.57;;;15.10;99.90;;;;;;5023682;28;20251;-79
2023/04/16 13:45:56;;;;;;;10.30;10.00;;;15.50;99.90;;;;;;5022631;28;20236;-80
2023/04/16 13:48:25;;;;;;;9.93;9.63;;;16.20;99.90;;;;;;5023091;28;20334;-79
2023/04/16 13:50:52;;;;;;;9.95;9.65;;;16.50;99.90;;;;;;5022781;28;20228;-79
2023/04/16 13:53:20;;;;;;;10.07;9.77;;;16.40;99.90;;;;;;5022305;28;20242;-79
2023/04/16 13:55:49;;;;;;;9.80;9.50;;;16.60;99.90;;;;;;5024357;28;20299;-79
2023/04/16 13:58:17;;;;;;;10.00;9.70;;;16.50;99.90;;;;;;5022186;28;20232;-79
2023/04/16 14:00:44;;;;;;;9.93;9.63;;;16.40;99.90;;;;;;5021284;28;20279;-79
2023/04/16 14:03:12;;;;;;;10.00;9.70;;;16.10;99.90;;;;;;5021987;28;20232;-79
2023/04/16 14:05:41;;;;;;;10.15;9.85;;;15.90;99.90;;;;;;5022530;28;20263;-79
2023/04/16 14:08:11;;;;;;;10.10;9.80;;;15.80;99.90;;;;;;5022511;28;20275;-79
2023/04/16 14:10:39;;;;;;;9.90;9.60;;;15.90;99.90;;;;;;5023536;28;20244;-79
2023/04/16 14:13:07;;;;;;;9.90;9.60;;;15.50;99.90;;;;;;5023433;28;20224;-80
2023/04/16 14:15:34;;;;;;;9.95;9.65;;;15.00;99.90;;;;;;5022591;28;20228;-79
2023/04/16 14:18:02;;;;;;;9.85;9.55;;;14.70;99.90;;;;;;5023127;28;20232;-79
2023/04/16 14:20:30;;;;;;;10.00;9.70;;;14.50;99.90;;;;;;5023057;28;20216;-79
2023/04/16 14:22:59;;;;;;;9.98;9.68;;;14.40;99.90;;;;;;5023494;28;20252;-79
2023/04/16 14:25:26;;;;;;;10.00;9.70;;;14.50;99.90;;;;;;5022953;28;20262;-79
2023/04/16 14:27:54;;;;;;;10.13;9.82;;;14.30;99.90;;;;;;5023214;28;20327;-79
2023/04/16 14:30:21;;;;;;;10.17;9.87;;;14.00;99.90;;;;;;5025050;28;20232;-79
2023/04/16 14:32:48;;;;;;;10.20;9.90;;;13.60;99.90;;;;;;5028544;28;20224;-79
2023/04/16 14:35:16;;;;;;;10.40;10.10;;;13.50;99.90;;;;;;5037181;28;20240;-80
2023/04/16 14:37:45;;;;;;;10.27;9.97;;;13.30;99.90;;;;;;5031699;28;20262;-79
2023/04/16 14:40:14;;;;;;;10.57;10.27;;;13.30;99.90;;;;;;5029176;28;20238;-79
2023/04/16 14:42:41;;;;;;;10.13;9.83;;;13.10;99.90;;;;;;5026345;28;20239;-78
2023/04/16 14:45:10;;;;;;;10.10;9.80;;;13.10;99.90;;;;;;5030971;28;20224;-79
2023/04/16 14:47:44;;;;;;;10.30;10.00;;;13.20;99.90;;;;;;5011445;28;20330;-78
2023/04/16 14:50:12;;;;;;;10.07;9.77;;;13.50;99.90;;;;;;5028087;28;20235;-79